Time;durP1;ratioP1;P1;durP2;ratioP2;P2;SDS_P1;SDS_P2;PMS_P1;PMS_P2;Temp;Humidity;BMP_temperature;BMP_pressure;BME280_temperature;BME280_humidity;BME280_pressure;Samples;Min_cycle;Max_cycle;Signal;HPM_P1;HPM_P2
2021/12/07 00:00:57;;;;;;;7.60;6.90;;;;;;;;;;2072525;28;20189;-68
2021/12/07 00:02:01;;;;;;;8.03;7.23;;;;;;;;;;2071448;28;20211;-66
2021/12/07 00:03:03;;;;;;;8.13;7.47;;;;;;;;;;2072157;28;20196;-68
2021/12/07 00:04:06;;;;;;;8.20;7.50;;;;;;;;;;2071679;28;20188;-68
2021/12/07 00:05:07;;;;;;;7.40;6.80;;;;;;;;;;2063656;28;20552;-66
2021/12/07 00:06:08;;;;;;;8.13;7.40;;;;;;;;;;2064075;28;20169;-66
2021/12/07 00:07:09;;;;;;;7.63;6.87;;;;;;;;;;2073238;28;20173;-67
2021/12/07 00:08:09;;;;;;;7.40;6.70;;;;;;;;;;2063149;28;20270;-67
2021/12/07 00:09:13;;;;;;;7.33;6.63;;;;;;;;;;2057010;28;20182;-68
2021/12/07 00:10:14;;;;;;;7.40;6.70;;;;;;;;;;2063366;28;20177;-67
2021/12/07 00:11:18;;;;;;;7.43;6.73;;;;;;;;;;2058770;28;20232;-69
2021/12/07 00:12:18;;;;;;;7.40;6.80;;;;;;;;;;2065888;28;20181;-68
2021/12/07 00:13:19;;;;;;;7.33;6.67;;;;;;;;;;2065173;28;20173;-64
2021/12/07 00:14:33;;;;;;;8.10;6.37;;;;;;;;;;2066020;28;20178;-67
2021/12/07 00:15:35;;;;;;;6.60;6.10;;;;;;;;;;2051879;28;20170;-67
2021/12/07 00:16:35;;;;;;;7.30;6.60;;;;;;;;;;2050288;28;20175;-66
2021/12/07 00:17:36;;;;;;;6.90;6.07;;;;;;;;;;2056655;28;20202;-68
2021/12/07 00:18:37;;;;;;;6.97;6.37;;;;;;;;;;2066207;28;20174;-66
2021/12/07 00:19:38;;;;;;;6.73;6.13;;;;;;;;;;2075013;28;20537;-68
2021/12/07 00:20:38;;;;;;;7.33;6.63;;;;;;;;;;2066977;28;20181;-66
2021/12/07 00:21:40;;;;;;;7.30;6.63;;;;;;;;;;2066778;28;20185;-68
2021/12/07 00:22:43;;;;;;;7.47;6.80;;;;;;;;;;2073344;28;20671;-67
2021/12/07 00:23:44;;;;;;;6.57;5.93;;;;;;;;;;2075507;28;20197;-67
2021/12/07 00:24:45;;;;;;;6.87;6.30;;;;;;;;;;2072579;28;20554;-66
2021/12/07 00:25:45;;;;;;;7.23;6.47;;;;;;;;;;2075102;28;20232;-65
2021/12/07 00:26:45;;;;;;;7.73;6.97;;;;;;;;;;2076433;28;20196;-66
2021/12/07 00:27:46;;;;;;;7.57;6.87;;;;;;;;;;2075148;28;20202;-66
2021/12/07 00:28:48;;;;;;;7.40;6.83;;;;;;;;;;2067679;28;20211;-66
2021/12/07 00:29:48;;;;;;;6.83;6.23;;;;;;;;;;2065580;28;20612;-66
2021/12/07 00:30:50;;;;;;;6.63;6.03;;;;;;;;;;2076079;28;20177;-67
2021/12/07 00:31:55;;;;;;;7.23;6.57;;;;;;;;;;2067686;28;20174;-67
2021/12/07 00:33:09;;;;;;;7.50;6.80;;;;;;;;;;2067476;28;20733;-66
2021/12/07 00:34:23;;;;;;;8.10;7.30;;;;;;;;;;2076277;28;20192;-66
2021/12/07 00:35:34;;;;;;;7.10;6.40;;;;;;;;;;2066994;28;20308;-66
2021/12/07 00:36:39;;;;;;;6.90;6.10;;;;;;;;;;2068903;28;20165;-67
2021/12/07 00:37:40;;;;;;;7.13;6.43;;;;;;;;;;2075753;28;20161;-67
2021/12/07 00:38:41;;;;;;;6.27;5.83;;;;;;;;;;2067295;28;20266;-66
2021/12/07 00:39:41;;;;;;;7.23;6.63;;;;;;;;;;2067766;28;20215;-66
2021/12/07 00:40:42;;;;;;;7.27;6.53;;;;;;;;;;2067615;28;20165;-67
2021/12/07 00:41:44;;;;;;;7.20;6.60;;;;;;;;;;2076347;28;20184;-65
2021/12/07 00:42:45;;;;;;;8.63;7.73;;;;;;;;;;2066901;28;20231;-66
2021/12/07 00:43:45;;;;;;;7.30;6.57;;;;;;;;;;2066487;28;20245;-65
2021/12/07 00:44:45;;;;;;;7.43;6.73;;;;;;;;;;2057852;28;20670;-65
2021/12/07 00:45:46;;;;;;;7.37;6.67;;;;;;;;;;2057781;28;20605;-66
2021/12/07 00:46:47;;;;;;;8.37;7.57;;;;;;;;;;2065626;28;20675;-68
2021/12/07 00:47:49;;;;;;;8.10;7.40;;;;;;;;;;2065815;28;20213;-66
2021/12/07 00:48:49;;;;;;;9.47;8.33;;;;;;;;;;2065597;28;20316;-66
2021/12/07 00:49:49;;;;;;;8.97;8.07;;;;;;;;;;2065516;28;20772;-66
2021/12/07 00:50:50;;;;;;;7.53;6.90;;;;;;;;;;2065547;28;20531;-66
2021/12/07 00:51:50;;;;;;;7.40;6.70;;;;;;;;;;2057597;28;20190;-66
2021/12/07 00:52:51;;;;;;;8.43;7.33;;;;;;;;;;2055605;28;20206;-66
2021/12/07 00:53:52;;;;;;;7.97;7.17;;;;;;;;;;2064500;28;20336;-66
2021/12/07 00:54:53;;;;;;;8.27;7.30;;;;;;;;;;2065102;28;20181;-66
2021/12/07 00:55:55;;;;;;;8.57;7.77;;;;;;;;;;2058675;28;20260;-66
2021/12/07 00:56:55;;;;;;;7.87;7.17;;;;;;;;;;2048685;28;20182;-67
2021/12/07 00:57:58;;;;;;;8.07;7.20;;;;;;;;;;2048850;29;20179;-67
2021/12/07 00:58:59;;;;;;;8.03;7.33;;;;;;;;;;2065644;28;20293;-68
2021/12/07 00:59:59;;;;;;;8.60;7.70;;;;;;;;;;2065037;28;20190;-68
2021/12/07 01:01:02;;;;;;;7.87;7.13;;;;;;;;;;2056954;28;20177;-67
2021/12/07 01:02:02;;;;;;;8.77;7.97;;;;;;;;;;2064866;28;20253;-66
2021/12/07 01:03:03;;;;;;;8.17;7.47;;;;;;;;;;2073989;28;20185;-66
2021/12/07 01:04:04;;;;;;;8.53;7.83;;;;;;;;;;2064404;28;20197;-67
2021/12/07 01:05:12;;;;;;;8.67;7.83;;;;;;;;;;2065386;28;20181;-67
2021/12/07 01:07:24;;;;;;;8.37;7.57;;;;;;;;;;2064119;28;20178;-67
2021/12/07 01:09:13;;;;;;;8.40;7.70;;;;;;;;;;2066418;28;20207;-66
2021/12/07 01:25:40;;;;;;;9.93;8.93;;;;;;;;;;2069305;28;20223;-67
2021/12/07 01:26:41;;;;;;;10.47;9.33;;;;;;;;;;2064292;28;20188;-66
2021/12/07 01:27:42;;;;;;;10.27;9.27;;;;;;;;;;2056442;28;20739;-67
2021/12/07 01:28:45;;;;;;;10.27;9.27;;;;;;;;;;2064924;28;20670;-67
2021/12/07 01:29:49;;;;;;;10.57;9.47;;;;;;;;;;2066924;28;20205;-67
2021/12/07 01:30:57;;;;;;;11.10;9.73;;;;;;;;;;2064813;28;20173;-67
2021/12/07 01:33:53;;;;;;;11.50;10.10;;;;;;;;;;2064519;28;20590;-63
2021/12/07 01:57:48;;;;;;;12.73;11.33;;;;;;;;;;2064796;28;20177;-66
2021/12/07 01:59:35;;;;;;;14.00;11.20;;;;;;;;;;2064671;28;20221;-67
2021/12/07 02:00:38;;;;;;;13.53;10.87;;;;;;;;;;2064444;28;20181;-68
2021/12/07 02:01:39;;;;;;;13.67;11.63;;;;;;;;;;2061164;28;20166;-67
2021/12/07 02:02:40;;;;;;;13.47;11.57;;;;;;;;;;2053313;28;20691;-66
2021/12/07 02:03:41;;;;;;;13.27;11.53;;;;;;;;;;2056148;28;20595;-65
2021/12/07 02:04:43;;;;;;;12.70;11.40;;;;;;;;;;2060722;28;20178;-66
2021/12/07 02:05:47;;;;;;;13.03;11.73;;;;;;;;;;2065018;28;20178;-66
2021/12/07 02:06:47;;;;;;;12.30;11.17;;;;;;;;;;2056620;28;20582;-66
2021/12/07 02:07:48;;;;;;;13.27;11.87;;;;;;;;;;2056510;28;20894;-65
2021/12/07 02:08:48;;;;;;;12.67;11.37;;;;;;;;;;2061148;28;20511;-65
2021/12/07 02:09:53;;;;;;;12.03;10.83;;;;;;;;;;2061826;28;20212;-66
2021/12/07 02:10:59;;;;;;;11.70;10.50;;;;;;;;;;2057268;28;20182;-67
2021/12/07 02:12:02;;;;;;;12.97;11.67;;;;;;;;;;2063906;28;20166;-66
2021/12/07 02:13:17;;;;;;;12.60;11.30;;;;;;;;;;2056627;28;20190;-67
2021/12/07 02:14:18;;;;;;;12.17;10.87;;;;;;;;;;2052190;28;20674;-67
2021/12/07 02:15:22;;;;;;;13.33;11.40;;;;;;;;;;2057734;28;20301;-67
2021/12/07 02:16:26;;;;;;;13.27;11.97;;;;;;;;;;2064657;28;20668;-68
2021/12/07 02:17:26;;;;;;;13.33;11.87;;;;;;;;;;2064486;28;20172;-67
2021/12/07 02:18:30;;;;;;;12.73;11.43;;;;;;;;;;2056563;28;20182;-65
2021/12/07 02:19:30;;;;;;;13.80;12.27;;;;;;;;;;2055873;28;20180;-66
2021/12/07 02:20:31;;;;;;;13.13;11.83;;;;;;;;;;2062590;28;20203;-65
2021/12/07 02:21:32;;;;;;;13.80;11.57;;;;;;;;;;2056366;28;20229;-66
2021/12/07 02:22:39;;;;;;;12.60;11.30;;;;;;;;;;2051211;28;20222;-66
2021/12/07 02:23:40;;;;;;;13.40;11.77;;;;;;;;;;2056172;28;20202;-66
2021/12/07 02:24:40;;;;;;;13.20;11.47;;;;;;;;;;2056344;28;20178;-66
2021/12/07 02:25:41;;;;;;;13.10;11.70;;;;;;;;;;2064133;28;20181;-67
2021/12/07 02:26:41;;;;;;;13.37;11.97;;;;;;;;;;2072289;28;20161;-65
2021/12/07 02:27:42;;;;;;;12.67;11.37;;;;;;;;;;2073578;28;20260;-67
2021/12/07 02:28:43;;;;;;;14.50;12.30;;;;;;;;;;2073856;28;20196;-66
2021/12/07 02:29:44;;;;;;;12.70;11.40;;;;;;;;;;2064521;28;20196;-66
2021/12/07 02:30:45;;;;;;;12.80;11.53;;;;;;;;;;2064008;28;20185;-67
2021/12/07 02:31:46;;;;;;;13.40;12.00;;;;;;;;;;2056077;28;20558;-65
2021/12/07 02:32:47;;;;;;;14.10;12.17;;;;;;;;;;2055938;28;20181;-66
2021/12/07 02:33:51;;;;;;;13.73;12.23;;;;;;;;;;2064833;28;20313;-66
2021/12/07 02:34:58;;;;;;;13.07;11.77;;;;;;;;;;2056451;28;20274;-66
2021/12/07 02:36:00;;;;;;;14.23;12.70;;;;;;;;;;2058073;28;20174;-66
2021/12/07 02:37:01;;;;;;;17.23;13.33;;;;;;;;;;2058039;28;20276;-67
2021/12/07 02:38:04;;;;;;;13.50;12.20;;;;;;;;;;2049319;28;20199;-66
2021/12/07 02:39:09;;;;;;;14.30;12.70;;;;;;;;;;2057381;28;20261;-66
2021/12/07 02:40:10;;;;;;;13.73;12.37;;;;;;;;;;2056539;28;20257;-67
2021/12/07 02:41:11;;;;;;;15.00;13.13;;;;;;;;;;2057039;28;20190;-66
2021/12/07 02:42:11;;;;;;;13.57;12.00;;;;;;;;;;2063944;28;20189;-67
2021/12/07 02:43:12;;;;;;;14.83;13.23;;;;;;;;;;2057753;28;20198;-65
2021/12/07 02:44:13;;;;;;;14.00;12.23;;;;;;;;;;2085845;23;20676;-55
2021/12/07 02:45:14;;;;;;;14.67;12.57;;;;;;;;;;2064315;28;20200;-52
2021/12/07 02:46:14;;;;;;;14.20;12.70;;;;;;;;;;2063467;28;20235;-49
2021/12/07 02:47:14;;;;;;;13.93;12.53;;;;;;;;;;2072520;28;20173;-53
2021/12/07 02:48:16;;;;;;;15.50;12.33;;;;;;;;;;2072668;28;20181;-53
2021/12/07 02:49:16;;;;;;;16.30;12.80;;;;;;;;;;2064940;28;20181;-51
2021/12/07 02:50:17;;;;;;;14.53;13.00;;;;;;;;;;2072738;28;20554;-51
2021/12/07 02:51:17;;;;;;;15.30;13.30;;;;;;;;;;2064910;28;20169;-53
2021/12/07 02:52:17;;;;;;;15.80;13.47;;;;;;;;;;2056594;28;20186;-52
2021/12/07 02:53:21;;;;;;;14.90;13.40;;;;;;;;;;2064364;28;20560;-52
2021/12/07 02:54:21;;;;;;;14.80;13.17;;;;;;;;;;2072781;28;20192;-52
2021/12/07 02:55:22;;;;;;;14.97;13.37;;;;;;;;;;2072821;28;20176;-52
2021/12/07 02:56:23;;;;;;;15.27;13.70;;;;;;;;;;2072978;28;20197;-53
2021/12/07 02:57:24;;;;;;;15.43;13.80;;;;;;;;;;2072697;28;20180;-52
2021/12/07 02:58:26;;;;;;;15.67;13.90;;;;;;;;;;2073393;28;20615;-54
2021/12/07 02:59:27;;;;;;;16.00;14.27;;;;;;;;;;2073017;28;20300;-50
2021/12/07 03:00:36;;;;;;;16.27;13.90;;;;;;;;;;2072757;28;20224;-51
2021/12/07 03:01:43;;;;;;;15.97;14.17;;;;;;;;;;2065292;28;20642;-54
2021/12/07 03:02:51;;;;;;;14.40;12.90;;;;;;;;;;2073551;28;20161;-53
2021/12/07 03:05:16;;;;;;;14.67;13.13;;;;;;;;;;2072642;28;20195;-52
2021/12/07 03:06:25;;;;;;;16.03;13.43;;;;;;;;;;2073057;28;20177;-51
2021/12/07 03:08:40;;;;;;;14.77;13.27;;;;;;;;;;2065372;28;20173;-54
2021/12/07 03:25:47;;;;;;;17.40;15.40;;;;;;;;;;2072754;28;20200;-51
2021/12/07 03:26:10;;;;;;;16.17;13.57;;;;;;;;;;2072855;28;20224;-54
2021/12/07 03:27:14;;;;;;;16.53;14.40;;;;;;;;;;2072645;28;20584;-51
2021/12/07 03:28:16;;;;;;;16.23;14.53;;;;;;;;;;2072678;28;20173;-50
2021/12/07 03:29:16;;;;;;;16.90;14.80;;;;;;;;;;2063134;28;20201;-51
2021/12/07 03:30:17;;;;;;;17.20;15.13;;;;;;;;;;2064505;28;20196;-51
2021/12/07 03:31:18;;;;;;;17.27;14.77;;;;;;;;;;2072863;28;20173;-55
2021/12/07 03:32:21;;;;;;;17.17;15.37;;;;;;;;;;2064935;28;20201;-53
2021/12/07 03:33:21;;;;;;;17.07;15.27;;;;;;;;;;2072961;28;20168;-52
2021/12/07 03:34:23;;;;;;;15.60;13.53;;;;;;;;;;2072276;28;20275;-50
2021/12/07 03:35:26;;;;;;;17.47;14.97;;;;;;;;;;2064377;28;20289;-53
2021/12/07 03:36:27;;;;;;;15.97;14.27;;;;;;;;;;2072836;28;20165;-51
2021/12/07 03:37:30;;;;;;;15.73;14.03;;;;;;;;;;2072504;28;20169;-52
2021/12/07 03:38:31;;;;;;;15.93;14.33;;;;;;;;;;2064185;28;20197;-53
2021/12/07 03:39:31;;;;;;;15.00;13.43;;;;;;;;;;2064466;28;20174;-53
2021/12/07 03:40:32;;;;;;;16.50;13.70;;;;;;;;;;2064680;28;20181;-51
2021/12/07 03:41:33;;;;;;;16.30;13.60;;;;;;;;;;2064678;28;20185;-52
2021/12/07 03:42:34;;;;;;;15.57;13.90;;;;;;;;;;2064347;28;20184;-51
2021/12/07 03:43:34;;;;;;;15.10;13.50;;;;;;;;;;2063874;28;20162;-50
2021/12/07 03:44:35;;;;;;;15.77;14.03;;;;;;;;;;2072035;28;20654;-50
2021/12/07 03:45:36;;;;;;;15.80;14.13;;;;;;;;;;2072935;28;20180;-51
2021/12/07 03:46:37;;;;;;;16.10;14.43;;;;;;;;;;2072782;28;20628;-51
2021/12/07 03:47:37;;;;;;;17.47;14.77;;;;;;;;;;2072316;28;20204;-50
2021/12/07 03:48:38;;;;;;;15.37;13.87;;;;;;;;;;2064114;28;20959;-53
2021/12/07 03:49:38;;;;;;;15.40;13.80;;;;;;;;;;2065012;28;20208;-51
2021/12/07 03:50:39;;;;;;;15.40;13.80;;;;;;;;;;2073436;28;20723;-50
2021/12/07 03:51:39;;;;;;;15.00;13.40;;;;;;;;;;2073538;28;20215;-54
2021/12/07 03:52:39;;;;;;;14.83;13.37;;;;;;;;;;2064975;28;20243;-51
2021/12/07 03:53:40;;;;;;;14.90;13.03;;;;;;;;;;2068705;28;20184;-50
2021/12/07 03:54:41;;;;;;;14.70;13.20;;;;;;;;;;2057230;28;20174;-52
2021/12/07 03:55:42;;;;;;;16.40;14.53;;;;;;;;;;2057426;28;20248;-52
2021/12/07 03:56:42;;;;;;;15.53;13.93;;;;;;;;;;2072926;28;20716;-52
2021/12/07 03:57:43;;;;;;;16.97;13.70;;;;;;;;;;2076393;28;20184;-53
2021/12/07 03:58:43;;;;;;;15.67;12.90;;;;;;;;;;2064507;28;20571;-51
2021/12/07 03:59:45;;;;;;;13.70;12.30;;;;;;;;;;2064394;28;20233;-51
2021/12/07 04:00:45;;;;;;;14.03;12.63;;;;;;;;;;2072464;28;20219;-54
2021/12/07 04:01:46;;;;;;;14.10;12.67;;;;;;;;;;2064467;28;20192;-50
2021/12/07 04:02:50;;;;;;;14.43;12.97;;;;;;;;;;2072441;28;20185;-51
2021/12/07 04:03:52;;;;;;;14.07;12.30;;;;;;;;;;2072123;28;20168;-51
2021/12/07 04:04:59;;;;;;;13.93;12.53;;;;;;;;;;2064742;28;20204;-54
2021/12/07 04:06:05;;;;;;;12.57;11.27;;;;;;;;;;2065690;28;20185;-51
2021/12/07 04:07:05;;;;;;;13.47;12.07;;;;;;;;;;2064868;28;20253;-50
2021/12/07 04:08:06;;;;;;;15.30;13.33;;;;;;;;;;2064237;28;20190;-51
2021/12/07 04:09:06;;;;;;;13.90;12.60;;;;;;;;;;2064424;28;20169;-52
2021/12/07 04:10:08;;;;;;;14.17;12.30;;;;;;;;;;2071835;28;20608;-51
2021/12/07 04:11:09;;;;;;;13.67;12.27;;;;;;;;;;2063913;28;20570;-54
2021/12/07 04:12:09;;;;;;;14.20;12.63;;;;;;;;;;2064529;28;20170;-51
2021/12/07 04:13:10;;;;;;;13.77;12.37;;;;;;;;;;2072709;28;20180;-54
2021/12/07 04:14:10;;;;;;;14.27;12.77;;;;;;;;;;2080633;28;20287;-52
2021/12/07 04:15:12;;;;;;;12.60;11.27;;;;;;;;;;2072328;28;20732;-52
2021/12/07 04:16:14;;;;;;;12.40;11.07;;;;;;;;;;2073746;28;20181;-55
2021/12/07 04:17:18;;;;;;;12.77;11.47;;;;;;;;;;2075472;28;20212;-54
2021/12/07 04:18:19;;;;;;;12.87;11.57;;;;;;;;;;2066605;28;20198;-54
2021/12/07 04:19:20;;;;;;;14.30;12.20;;;;;;;;;;2075860;28;20239;-52
2021/12/07 04:20:20;;;;;;;14.67;11.73;;;;;;;;;;2074948;28;20260;-53
2021/12/07 04:21:20;;;;;;;12.23;11.03;;;;;;;;;;2084382;28;20644;-53
2021/12/07 04:22:21;;;;;;;13.10;11.67;;;;;;;;;;2075333;28;20610;-54
2021/12/07 04:23:21;;;;;;;13.43;12.10;;;;;;;;;;2075728;28;20173;-55
2021/12/07 04:24:27;;;;;;;12.97;11.23;;;;;;;;;;2082751;28;20656;-56
2021/12/07 04:25:27;;;;;;;13.90;11.67;;;;;;;;;;2083478;28;20172;-54
2021/12/07 04:26:28;;;;;;;14.73;12.70;;;;;;;;;;2083115;28;20207;-51
2021/12/07 04:27:30;;;;;;;13.47;12.07;;;;;;;;;;2084556;28;20168;-51
2021/12/07 04:28:30;;;;;;;14.57;12.37;;;;;;;;;;2083206;28;20191;-51
2021/12/07 04:29:30;;;;;;;14.33;12.93;;;;;;;;;;2081564;28;20203;-51
2021/12/07 04:30:38;;;;;;;15.13;13.03;;;;;;;;;;2082748;28;20668;-52
2021/12/07 04:31:38;;;;;;;16.30;14.23;;;;;;;;;;2078788;28;20177;-54
2021/12/07 04:32:39;;;;;;;13.70;12.40;;;;;;;;;;2077546;28;20185;-54
2021/12/07 04:33:39;;;;;;;15.60;13.67;;;;;;;;;;2082373;28;20179;-54
2021/12/07 04:34:40;;;;;;;14.77;13.17;;;;;;;;;;2082786;28;20212;-53
2021/12/07 04:35:42;;;;;;;14.00;12.40;;;;;;;;;;2083385;28;20195;-54
2021/12/07 04:36:42;;;;;;;14.17;12.63;;;;;;;;;;2073269;28;20201;-53
2021/12/07 04:37:43;;;;;;;15.27;13.67;;;;;;;;;;2074429;28;20181;-54
2021/12/07 04:38:43;;;;;;;15.10;13.50;;;;;;;;;;2082119;28;20164;-56
2021/12/07 04:39:43;;;;;;;15.60;14.00;;;;;;;;;;2068792;28;20622;-52
2021/12/07 04:40:44;;;;;;;15.27;13.67;;;;;;;;;;2069027;28;20224;-54
2021/12/07 04:41:47;;;;;;;15.57;13.30;;;;;;;;;;2072911;28;20201;-54
2021/12/07 04:42:48;;;;;;;15.93;13.83;;;;;;;;;;2073861;28;20217;-53
2021/12/07 04:43:49;;;;;;;15.03;13.43;;;;;;;;;;2072717;28;20276;-55
2021/12/07 04:44:53;;;;;;;15.93;13.40;;;;;;;;;;2071313;28;20199;-55
2021/12/07 04:47:15;;;;;;;15.67;14.07;;;;;;;;;;2081921;28;20644;-52
2021/12/07 04:50:41;;;;;;;15.23;13.57;;;;;;;;;;2081686;28;20164;-52
2021/12/07 04:58:16;;;;;;;14.93;13.33;;;;;;;;;;2082096;28;20178;-52
2021/12/07 04:59:16;;;;;;;15.93;14.03;;;;;;;;;;2078779;28;20165;-53
2021/12/07 05:00:25;;;;;;;16.27;14.20;;;;;;;;;;2083038;28;20738;-54
2021/12/07 05:01:26;;;;;;;15.80;13.97;;;;;;;;;;2077585;28;20208;-55
2021/12/07 05:02:26;;;;;;;16.13;14.43;;;;;;;;;;2083510;28;20172;-52
2021/12/07 05:03:28;;;;;;;18.37;15.07;;;;;;;;;;2083104;28;20195;-53
2021/12/07 05:04:32;;;;;;;16.17;13.83;;;;;;;;;;2080060;28;20191;-54
2021/12/07 05:05:37;;;;;;;16.53;14.57;;;;;;;;;;2078931;28;20228;-54
2021/12/07 05:06:44;;;;;;;17.53;15.30;;;;;;;;;;2083230;28;20187;-53
2021/12/07 05:07:52;;;;;;;18.03;15.80;;;;;;;;;;2084128;28;20168;-52
2021/12/07 05:09:00;;;;;;;17.97;14.73;;;;;;;;;;2074734;28;20189;-54
2021/12/07 05:15:25;;;;;;;17.03;14.90;;;;;;;;;;2081411;28;20164;-52
2021/12/07 05:18:34;;;;;;;18.57;15.53;;;;;;;;;;2081872;28;20172;-54
2021/12/07 05:24:14;;;;;;;16.03;13.60;;;;;;;;;;2082072;28;20188;-51
2021/12/07 05:38:24;;;;;;;16.50;14.70;;;;;;;;;;2082662;28;20664;-52
2021/12/07 05:39:27;;;;;;;16.50;13.80;;;;;;;;;;2081952;28;20169;-50
2021/12/07 05:40:29;;;;;;;16.73;14.97;;;;;;;;;;2082471;28;20230;-51
2021/12/07 05:41:29;;;;;;;15.90;14.03;;;;;;;;;;2082531;28;20169;-52
2021/12/07 05:42:30;;;;;;;16.70;14.40;;;;;;;;;;2082584;28;20251;-51
2021/12/07 05:43:30;;;;;;;16.60;14.80;;;;;;;;;;2082371;28;20659;-53
2021/12/07 05:44:30;;;;;;;16.70;14.90;;;;;;;;;;2081649;28;20302;-49
2021/12/07 05:45:35;;;;;;;16.90;14.10;;;;;;;;;;2080679;28;20263;-50
2021/12/07 05:46:35;;;;;;;16.80;14.23;;;;;;;;;;2079838;28;20252;-54
2021/12/07 05:47:36;;;;;;;18.63;14.93;;;;;;;;;;2079604;28;20169;-52
2021/12/07 05:48:36;;;;;;;16.17;14.47;;;;;;;;;;2078571;28;20196;-52
2021/12/07 05:49:37;;;;;;;18.00;14.37;;;;;;;;;;2082880;28;20200;-54
2021/12/07 05:50:38;;;;;;;19.57;16.93;;;;;;;;;;2083176;28;20554;-54
2021/12/07 05:51:38;;;;;;;17.27;14.60;;;;;;;;;;2078996;28;20183;-52
2021/12/07 05:52:38;;;;;;;16.43;14.67;;;;;;;;;;2080260;28;20291;-52
2021/12/07 05:53:39;;;;;;;17.50;15.57;;;;;;;;;;2079238;28;20202;-52
2021/12/07 05:54:39;;;;;;;19.93;15.57;;;;;;;;;;2081470;28;20211;-51
2021/12/07 05:55:40;;;;;;;18.83;16.00;;;;;;;;;;2076455;28;20183;-51
2021/12/07 05:56:40;;;;;;;18.73;15.17;;;;;;;;;;2077732;28;20168;-52
2021/12/07 05:57:40;;;;;;;20.07;16.93;;;;;;;;;;2080958;28;20179;-52
2021/12/07 05:58:40;;;;;;;20.07;15.93;;;;;;;;;;2081423;28;20192;-52
2021/12/07 05:59:41;;;;;;;18.47;15.20;;;;;;;;;;2081980;28;20283;-52
2021/12/07 06:00:44;;;;;;;19.43;16.40;;;;;;;;;;2081337;28;20172;-52
2021/12/07 06:01:44;;;;;;;18.90;15.93;;;;;;;;;;2082128;28;20172;-52
2021/12/07 06:02:44;;;;;;;20.17;15.63;;;;;;;;;;2081579;28;20222;-55
2021/12/07 06:03:45;;;;;;;20.37;17.13;;;;;;;;;;2078611;28;20208;-56
2021/12/07 06:04:45;;;;;;;18.73;15.63;;;;;;;;;;2072714;28;20181;-56
2021/12/07 06:05:45;;;;;;;20.50;15.93;;;;;;;;;;2072436;28;20243;-53
2021/12/07 06:06:45;;;;;;;20.87;17.07;;;;;;;;;;2080216;28;20199;-55
2021/12/07 06:07:46;;;;;;;20.30;16.43;;;;;;;;;;2080071;28;20192;-55
2021/12/07 06:08:46;;;;;;;20.70;17.00;;;;;;;;;;2079049;28;20179;-53
2021/12/07 06:09:46;;;;;;;22.43;17.70;;;;;;;;;;2076681;28;20197;-53
2021/12/07 06:10:46;;;;;;;22.53;18.33;;;;;;;;;;2078562;28;20215;-57
2021/12/07 06:11:49;;;;;;;21.53;17.23;;;;;;;;;;2080317;28;20560;-52
2021/12/07 06:12:49;;;;;;;20.50;16.97;;;;;;;;;;2080319;28;20186;-51
2021/12/07 06:13:50;;;;;;;23.67;18.83;;;;;;;;;;2081059;28;20184;-53
2021/12/07 06:14:54;;;;;;;24.30;18.47;;;;;;;;;;2072441;28;20184;-53
2021/12/07 06:15:55;;;;;;;24.17;17.87;;;;;;;;;;2073823;28;20173;-51
2021/12/07 06:16:55;;;;;;;24.80;18.37;;;;;;;;;;2080748;28;20243;-53
2021/12/07 06:17:56;;;;;;;24.93;18.60;;;;;;;;;;2081533;28;20180;-50
2021/12/07 06:18:57;;;;;;;26.47;19.20;;;;;;;;;;2077406;28;20185;-51
2021/12/07 06:19:57;;;;;;;19.17;16.93;;;;;;;;;;2080299;28;20176;-54
2021/12/07 06:20:57;;;;;;;25.33;18.27;;;;;;;;;;2081689;28;20561;-50
2021/12/07 06:21:58;;;;;;;25.00;18.00;;;;;;;;;;2077857;28;20223;-54
2021/12/07 06:22:58;;;;;;;25.87;19.07;;;;;;;;;;2060089;28;20197;-51
2021/12/07 06:23:58;;;;;;;22.87;17.57;;;;;;;;;;2061732;28;20213;-51
2021/12/07 06:24:59;;;;;;;24.23;18.07;;;;;;;;;;2079981;28;20188;-52
2021/12/07 06:25:59;;;;;;;23.90;17.13;;;;;;;;;;2076601;28;20272;-52
2021/12/07 06:26:59;;;;;;;23.80;17.80;;;;;;;;;;2068143;28;20190;-52
2021/12/07 06:28:00;;;;;;;23.07;17.03;;;;;;;;;;2071647;28;20181;-56
2021/12/07 06:29:00;;;;;;;23.60;18.13;;;;;;;;;;2080965;28;20229;-53
2021/12/07 06:30:01;;;;;;;23.43;17.77;;;;;;;;;;2079861;28;20591;-52
2021/12/07 06:31:01;;;;;;;28.17;18.30;;;;;;;;;;2080115;28;20168;-50
2021/12/07 06:32:01;;;;;;;28.07;18.63;;;;;;;;;;2073354;28;20181;-53
2021/12/07 06:33:01;;;;;;;23.10;17.40;;;;;;;;;;2080060;28;20164;-56
2021/12/07 06:34:02;;;;;;;23.20;18.43;;;;;;;;;;2080638;28;20201;-51
2021/12/07 06:35:03;;;;;;;22.80;18.30;;;;;;;;;;2081024;28;20520;-53
2021/12/07 06:36:04;;;;;;;26.07;18.63;;;;;;;;;;2081138;28;20168;-50
2021/12/07 06:37:05;;;;;;;27.03;18.60;;;;;;;;;;2080750;28;20180;-52
2021/12/07 06:38:05;;;;;;;25.93;18.83;;;;;;;;;;2080342;28;20231;-53
2021/12/07 06:39:06;;;;;;;24.10;19.50;;;;;;;;;;2072483;28;20287;-52
2021/12/07 06:40:08;;;;;;;25.30;20.07;;;;;;;;;;2080908;28;20172;-53
2021/12/07 06:41:08;;;;;;;27.03;19.70;;;;;;;;;;2074448;28;20173;-54
2021/12/07 06:42:09;;;;;;;27.57;19.97;;;;;;;;;;2074695;28;20872;-51
2021/12/07 06:43:09;;;;;;;24.47;18.67;;;;;;;;;;2083357;28;20164;-53
2021/12/07 06:44:09;;;;;;;23.37;18.77;;;;;;;;;;2080615;28;20230;-54
2021/12/07 06:45:11;;;;;;;27.03;19.43;;;;;;;;;;2081250;28;20235;-51
2021/12/07 06:46:11;;;;;;;27.47;19.87;;;;;;;;;;2081093;28;20552;-53
2021/12/07 06:47:11;;;;;;;27.43;20.10;;;;;;;;;;2080750;28;20172;-50
2021/12/07 06:48:12;;;;;;;31.33;20.50;;;;;;;;;;2081321;28;20589;-51
2021/12/07 06:49:12;;;;;;;27.87;19.17;;;;;;;;;;2081081;28;20647;-52
2021/12/07 06:50:12;;;;;;;26.17;20.33;;;;;;;;;;2080670;28;20181;-51
2021/12/07 06:51:13;;;;;;;30.63;20.70;;;;;;;;;;2065726;28;20193;-53
2021/12/07 06:52:13;;;;;;;24.47;19.77;;;;;;;;;;2071549;28;20236;-51
2021/12/07 06:53:13;;;;;;;29.17;20.17;;;;;;;;;;2081881;28;20160;-52
2021/12/07 06:54:14;;;;;;;28.03;19.47;;;;;;;;;;2081352;28;20200;-50
2021/12/07 06:55:14;;;;;;;29.50;20.57;;;;;;;;;;2082139;28;20184;-52
2021/12/07 06:56:15;;;;;;;29.60;21.20;;;;;;;;;;2081923;28;20167;-53
2021/12/07 06:57:15;;;;;;;31.60;20.53;;;;;;;;;;2080898;28;20180;-51
2021/12/07 06:58:15;;;;;;;28.83;20.27;;;;;;;;;;2081711;28;20234;-50
2021/12/07 06:59:16;;;;;;;29.40;20.80;;;;;;;;;;2082026;28;20176;-55
2021/12/07 07:00:17;;;;;;;28.90;20.07;;;;;;;;;;2081227;28;20176;-55
2021/12/07 07:01:18;;;;;;;33.93;21.17;;;;;;;;;;2081792;28;20172;-55
2021/12/07 07:02:19;;;;;;;30.90;21.10;;;;;;;;;;2081949;28;20183;-54
2021/12/07 07:03:19;;;;;;;30.03;20.57;;;;;;;;;;2082224;28;20637;-52
2021/12/07 07:04:19;;;;;;;31.50;21.50;;;;;;;;;;2079103;28;20205;-51
2021/12/07 07:05:20;;;;;;;31.53;21.70;;;;;;;;;;2080031;28;20208;-53
2021/12/07 07:06:20;;;;;;;28.80;21.07;;;;;;;;;;2082111;28;20176;-53
2021/12/07 07:07:22;;;;;;;29.33;20.60;;;;;;;;;;2081207;28;20176;-52
2021/12/07 07:08:22;;;;;;;31.00;20.97;;;;;;;;;;2081673;28;20184;-56
2021/12/07 07:09:22;;;;;;;30.20;20.57;;;;;;;;;;2081759;28;20169;-52
2021/12/07 07:10:23;;;;;;;29.63;20.90;;;;;;;;;;2081974;28;20250;-53
2021/12/07 07:11:23;;;;;;;29.23;20.30;;;;;;;;;;2081108;28;20183;-51
2021/12/07 07:12:24;;;;;;;30.93;21.73;;;;;;;;;;2078708;28;20197;-54
2021/12/07 07:13:24;;;;;;;31.67;21.67;;;;;;;;;;2081743;28;20527;-50
2021/12/07 07:14:24;;;;;;;32.00;21.27;;;;;;;;;;2081522;28;20196;-51
2021/12/07 07:15:25;;;;;;;32.33;21.13;;;;;;;;;;2081655;28;20596;-52
2021/12/07 07:16:25;;;;;;;30.77;20.37;;;;;;;;;;2082113;28;20633;-52
2021/12/07 07:17:25;;;;;;;27.57;20.00;;;;;;;;;;2080037;28;20185;-51
2021/12/07 07:18:25;;;;;;;33.93;20.13;;;;;;;;;;2081220;28;20169;-52
2021/12/07 07:19:26;;;;;;;29.53;20.17;;;;;;;;;;2081854;28;20597;-54
2021/12/07 07:20:26;;;;;;;32.30;22.00;;;;;;;;;;2081894;28;20184;-49
2021/12/07 07:21:27;;;;;;;26.63;19.00;;;;;;;;;;2081912;28;20168;-52
2021/12/07 07:22:27;;;;;;;26.97;19.83;;;;;;;;;;2082344;28;20252;-51
2021/12/07 07:23:27;;;;;;;28.67;20.13;;;;;;;;;;2081789;28;20654;-53
2021/12/07 07:24:31;;;;;;;25.23;18.87;;;;;;;;;;2076192;28;20196;-49
2021/12/07 07:25:32;;;;;;;26.30;20.10;;;;;;;;;;2079461;28;20180;-52
2021/12/07 07:26:32;;;;;;;30.10;20.10;;;;;;;;;;2073677;28;20208;-52
2021/12/07 07:27:32;;;;;;;26.17;19.47;;;;;;;;;;2073249;28;20651;-52
2021/12/07 07:28:33;;;;;;;29.50;19.73;;;;;;;;;;2074084;28;20250;-53
2021/12/07 07:29:34;;;;;;;29.30;19.37;;;;;;;;;;2076618;28;20223;-54
2021/12/07 07:30:34;;;;;;;28.83;18.97;;;;;;;;;;2081252;28;20183;-51
2021/12/07 07:31:36;;;;;;;31.17;19.13;;;;;;;;;;2081740;28;20164;-52
2021/12/07 07:32:37;;;;;;;25.37;18.73;;;;;;;;;;2078959;28;20176;-55
2021/12/07 07:33:37;;;;;;;31.40;20.40;;;;;;;;;;2080932;28;20184;-51
2021/12/07 07:34:37;;;;;;;30.63;20.00;;;;;;;;;;2078348;28;20249;-50
2021/12/07 07:35:38;;;;;;;33.27;21.83;;;;;;;;;;2077308;28;20176;-51
2021/12/07 07:36:38;;;;;;;32.27;20.13;;;;;;;;;;2081826;28;20207;-54